sensor_id;sensor_type;location;lat;lon;timestamp;temperature;humidity
67131;HTU21D;54051;53.464;49.532;2022-08-05T00:01:48;20.70;76.61
67131;HTU21D;54051;53.464;49.532;2022-08-05T00:04:17;20.71;76.05
67131;HTU21D;54051;53.464;49.532;2022-08-05T00:06:44;20.66;76.31
67131;HTU21D;54051;53.464;49.532;2022-08-05T00:09:10;20.61;75.97
67131;HTU21D;54051;53.464;49.532;2022-08-05T00:11:36;20.62;75.79
67131;HTU21D;54051;53.464;49.532;2022-08-05T00:14:03;20.64;75.43
67131;HTU21D;54051;53.464;49.532;2022-08-05T00:16:29;20.55;75.44
67131;HTU21D;54051;53.464;49.532;2022-08-05T00:18:55;20.47;75.61
67131;HTU21D;54051;53.464;49.532;2022-08-05T00:21:22;20.41;75.87
67131;HTU21D;54051;53.464;49.532;2022-08-05T00:23:48;20.44;75.70
67131;HTU21D;54051;53.464;49.532;2022-08-05T00:26:15;20.48;75.62
67131;HTU21D;54051;53.464;49.532;2022-08-05T00:28:41;20.46;75.68
67131;HTU21D;54051;53.464;49.532;2022-08-05T00:31:07;20.41;75.79
67131;HTU21D;54051;53.464;49.532;2022-08-05T00:33:34;20.44;75.73
67131;HTU21D;54051;53.464;49.532;2022-08-05T00:36:00;20.50;75.32
67131;HTU21D;54051;53.464;49.532;2022-08-05T00:38:27;20.50;74.97
67131;HTU21D;54051;53.464;49.532;2022-08-05T00:40:55;20.48;75.25
67131;HTU21D;54051;53.464;49.532;2022-08-05T00:43:22;20.50;75.12
67131;HTU21D;54051;53.464;49.532;2022-08-05T00:45:48;20.51;74.90
67131;HTU21D;54051;53.464;49.532;2022-08-05T00:48:19;20.43;75.12
67131;HTU21D;54051;53.464;49.532;2022-08-05T00:50:48;20.39;75.34
67131;HTU21D;54051;53.464;49.532;2022-08-05T00:53:16;20.41;75.54
67131;HTU21D;54051;53.464;49.532;2022-08-05T00:55:43;20.39;75.61
67131;HTU21D;54051;53.464;49.532;2022-08-05T00:58:11;20.39;75.75
67131;HTU21D;54051;53.464;49.532;2022-08-05T01:00:39;20.32;76.38
67131;HTU21D;54051;53.464;49.532;2022-08-05T01:03:06;20.26;76.60
67131;HTU21D;54051;53.464;49.532;2022-08-05T01:05:32;20.22;76.76
67131;HTU21D;54051;53.464;49.532;2022-08-05T01:07:58;20.11;77.13
67131;HTU21D;54051;53.464;49.532;2022-08-05T01:10:29;20.00;77.66
67131;HTU21D;54051;53.464;49.532;2022-08-05T01:13:00;19.98;77.52
67131;HTU21D;54051;53.464;49.532;2022-08-05T01:15:34;20.00;77.05
67131;HTU21D;54051;53.464;49.532;2022-08-05T01:18:11;19.96;77.05
67131;HTU21D;54051;53.464;49.532;2022-08-05T01:21:13;20.05;76.32
67131;HTU21D;54051;53.464;49.532;2022-08-05T01:23:56;20.13;75.59
67131;HTU21D;54051;53.464;49.532;2022-08-05T01:29:26;20.26;75.38
67131;HTU21D;54051;53.464;49.532;2022-08-05T01:31:57;20.27;75.50
67131;HTU21D;54051;53.464;49.532;2022-08-05T01:34:28;20.32;75.20
67131;HTU21D;54051;53.464;49.532;2022-08-05T01:39:34;20.35;75.20
67131;HTU21D;54051;53.464;49.532;2022-08-05T01:42:03;20.29;75.43
67131;HTU21D;54051;53.464;49.532;2022-08-05T01:44:31;20.29;75.53
67131;HTU21D;54051;53.464;49.532;2022-08-05T01:46:59;20.24;75.86
67131;HTU21D;54051;53.464;49.532;2022-08-05T01:49:26;20.19;76.11
67131;HTU21D;54051;53.464;49.532;2022-08-05T01:51:57;20.26;75.99
67131;HTU21D;54051;53.464;49.532;2022-08-05T01:54:40;20.31;75.79
67131;HTU21D;54051;53.464;49.532;2022-08-05T01:57:08;20.30;75.76
67131;HTU21D;54051;53.464;49.532;2022-08-05T01:59:36;20.21;76.24
67131;HTU21D;54051;53.464;49.532;2022-08-05T02:02:04;20.17;76.44
67131;HTU21D;54051;53.464;49.532;2022-08-05T02:04:34;20.14;76.82
67131;HTU21D;54051;53.464;49.532;2022-08-05T02:07:01;20.12;77.19
67131;HTU21D;54051;53.464;49.532;2022-08-05T02:09:28;20.17;77.02
67131;HTU21D;54051;53.464;49.532;2022-08-05T02:14:33;20.39;76.32
67131;HTU21D;54051;53.464;49.532;2022-08-05T02:17:05;20.41;76.33
67131;HTU21D;54051;53.464;49.532;2022-08-05T02:19:35;20.43;76.30
67131;HTU21D;54051;53.464;49.532;2022-08-05T02:22:15;20.56;75.87
67131;HTU21D;54051;53.464;49.532;2022-08-05T02:24:47;20.65;75.45
67131;HTU21D;54051;53.464;49.532;2022-08-05T02:27:15;20.80;74.75
67131;HTU21D;54051;53.464;49.532;2022-08-05T02:29:44;20.86;74.54
67131;HTU21D;54051;53.464;49.532;2022-08-05T02:32:12;20.90;74.35
67131;HTU21D;54051;53.464;49.532;2022-08-05T02:34:40;21.40;72.41
67131;HTU21D;54051;53.464;49.532;2022-08-05T02:37:08;22.82;66.44
67131;HTU21D;54051;53.464;49.532;2022-08-05T02:39:37;23.64;63.16
67131;HTU21D;54051;53.464;49.532;2022-08-05T02:42:04;24.68;59.77
67131;HTU21D;54051;53.464;49.532;2022-08-05T02:44:33;26.11;55.04
67131;HTU21D;54051;53.464;49.532;2022-08-05T02:47:04;27.64;50.22
67131;HTU21D;54051;53.464;49.532;2022-08-05T02:49:35;28.48;48.05
67131;HTU21D;54051;53.464;49.532;2022-08-05T02:52:04;29.71;44.78
67131;HTU21D;54051;53.464;49.532;2022-08-05T02:54:31;30.90;41.69
67131;HTU21D;54051;53.464;49.532;2022-08-05T02:56:59;32.28;38.71
67131;HTU21D;54051;53.464;49.532;2022-08-05T02:59:27;32.40;37.05
67131;HTU21D;54051;53.464;49.532;2022-08-05T03:01:55;32.94;35.81
67131;HTU21D;54051;53.464;49.532;2022-08-05T03:04:26;32.72;35.86
67131;HTU21D;54051;53.464;49.532;2022-08-05T03:06:52;33.47;34.77
67131;HTU21D;54051;53.464;49.532;2022-08-05T03:09:19;33.91;33.00
67131;HTU21D;54051;53.464;49.532;2022-08-05T03:11:45;33.58;33.83
67131;HTU21D;54051;53.464;49.532;2022-08-05T03:14:11;34.23;32.36
67131;HTU21D;54051;53.464;49.532;2022-08-05T03:16:38;34.41;31.96
67131;HTU21D;54051;53.464;49.532;2022-08-05T03:19:04;34.35;32.37
67131;HTU21D;54051;53.464;49.532;2022-08-05T03:21:30;34.97;30.83
67131;HTU21D;54051;53.464;49.532;2022-08-05T03:23:57;35.85;29.10
67131;HTU21D;54051;53.464;49.532;2022-08-05T03:26:23;36.59;27.69
67131;HTU21D;54051;53.464;49.532;2022-08-05T03:28:49;36.07;27.86
67131;HTU21D;54051;53.464;49.532;2022-08-05T03:31:16;36.16;27.80
67131;HTU21D;54051;53.464;49.532;2022-08-05T03:33:42;36.21;27.73
67131;HTU21D;54051;53.464;49.532;2022-08-05T03:36:09;36.37;26.40
67131;HTU21D;54051;53.464;49.532;2022-08-05T03:38:41;36.21;26.93
67131;HTU21D;54051;53.464;49.532;2022-08-05T03:41:08;36.90;25.67
67131;HTU21D;54051;53.464;49.532;2022-08-05T03:43:35;36.75;25.76
67131;HTU21D;54051;53.464;49.532;2022-08-05T03:46:02;35.15;28.48
67131;HTU21D;54051;53.464;49.532;2022-08-05T03:48:29;34.36;29.48
67131;HTU21D;54051;53.464;49.532;2022-08-05T03:53:37;35.24;27.22
67131;HTU21D;54051;53.464;49.532;2022-08-05T03:56:12;35.22;28.03
67131;HTU21D;54051;53.464;49.532;2022-08-05T03:58:44;35.42;27.72
67131;HTU21D;54051;53.464;49.532;2022-08-05T04:01:12;34.97;28.19
67131;HTU21D;54051;53.464;49.532;2022-08-05T04:03:41;34.99;28.84
67131;HTU21D;54051;53.464;49.532;2022-08-05T04:06:09;34.63;29.60
67131;HTU21D;54051;53.464;49.532;2022-08-05T04:08:36;34.25;29.93
67131;HTU21D;54051;53.464;49.532;2022-08-05T04:11:04;34.21;29.58
67131;HTU21D;54051;53.464;49.532;2022-08-05T04:13:32;34.57;29.04
67131;HTU21D;54051;53.464;49.532;2022-08-05T04:15:58;34.69;28.53
67131;HTU21D;54051;53.464;49.532;2022-08-05T04:18:25;35.72;26.10
67131;HTU21D;54051;53.464;49.532;2022-08-05T04:20:53;35.83;25.87
67131;HTU21D;54051;53.464;49.532;2022-08-05T04:23:21;36.67;24.62
67131;HTU21D;54051;53.464;49.532;2022-08-05T04:25:48;36.71;23.66
67131;HTU21D;54051;53.464;49.532;2022-08-05T04:28:14;36.48;23.58
67131;HTU21D;54051;53.464;49.532;2022-08-05T04:30:41;35.97;24.43
67131;HTU21D;54051;53.464;49.532;2022-08-05T04:33:07;35.71;24.88
67131;HTU21D;54051;53.464;49.532;2022-08-05T04:35:33;36.73;23.25
67131;HTU21D;54051;53.464;49.532;2022-08-05T04:37:59;37.21;23.04
67131;HTU21D;54051;53.464;49.532;2022-08-05T04:40:26;38.29;20.68
67131;HTU21D;54051;53.464;49.532;2022-08-05T04:42:52;38.32;21.67
67131;HTU21D;54051;53.464;49.532;2022-08-05T04:45:18;39.38;20.52
67131;HTU21D;54051;53.464;49.532;2022-08-05T04:47:44;40.30;20.91
67131;HTU21D;54051;53.464;49.532;2022-08-05T04:50:11;39.85;21.33
67131;HTU21D;54051;53.464;49.532;2022-08-05T04:52:37;39.13;22.70
67131;HTU21D;54051;53.464;49.532;2022-08-05T04:55:03;38.56;23.65
67131;HTU21D;54051;53.464;49.532;2022-08-05T04:57:30;38.78;23.37
67131;HTU21D;54051;53.464;49.532;2022-08-05T04:59:56;39.17;23.01
67131;HTU21D;54051;53.464;49.532;2022-08-05T05:02:23;39.94;21.84
67131;HTU21D;54051;53.464;49.532;2022-08-05T05:04:49;39.68;22.29
67131;HTU21D;54051;53.464;49.532;2022-08-05T05:07:15;39.65;22.18
67131;HTU21D;54051;53.464;49.532;2022-08-05T05:09:48;39.52;21.98
67131;HTU21D;54051;53.464;49.532;2022-08-05T05:12:14;39.84;22.17
67131;HTU21D;54051;53.464;49.532;2022-08-05T05:14:41;39.42;22.77
67131;HTU21D;54051;53.464;49.532;2022-08-05T05:17:07;38.58;24.06
67131;HTU21D;54051;53.464;49.532;2022-08-05T05:19:33;39.03;23.34
67131;HTU21D;54051;53.464;49.532;2022-08-05T05:22:01;39.69;22.14
67131;HTU21D;54051;53.464;49.532;2022-08-05T05:24:27;39.69;22.72
67131;HTU21D;54051;53.464;49.532;2022-08-05T05:26:56;40.51;21.31
67131;HTU21D;54051;53.464;49.532;2022-08-05T05:29:22;40.47;21.63
67131;HTU21D;54051;53.464;49.532;2022-08-05T05:31:49;40.58;21.31
67131;HTU21D;54051;53.464;49.532;2022-08-05T05:34:15;40.31;21.87
67131;HTU21D;54051;53.464;49.532;2022-08-05T05:36:41;40.33;21.93
67131;HTU21D;54051;53.464;49.532;2022-08-05T05:39:07;40.15;22.23
67131;HTU21D;54051;53.464;49.532;2022-08-05T05:41:33;39.96;22.57
67131;HTU21D;54051;53.464;49.532;2022-08-05T05:44:02;39.64;22.85
67131;HTU21D;54051;53.464;49.532;2022-08-05T05:46:28;40.23;22.08
67131;HTU21D;54051;53.464;49.532;2022-08-05T05:48:55;40.47;21.91
67131;HTU21D;54051;53.464;49.532;2022-08-05T05:51:22;40.28;21.86
67131;HTU21D;54051;53.464;49.532;2022-08-05T05:53:50;40.70;21.37
67131;HTU21D;54051;53.464;49.532;2022-08-05T05:56:17;40.66;21.73
67131;HTU21D;54051;53.464;49.532;2022-08-05T05:58:46;41.31;21.04
67131;HTU21D;54051;53.464;49.532;2022-08-05T06:01:15;41.64;20.12
67131;HTU21D;54051;53.464;49.532;2022-08-05T06:03:41;42.02;19.66
67131;HTU21D;54051;53.464;49.532;2022-08-05T06:06:07;41.98;18.99
67131;HTU21D;54051;53.464;49.532;2022-08-05T06:08:34;42.15;19.39
67131;HTU21D;54051;53.464;49.532;2022-08-05T06:11:00;42.17;19.76
67131;HTU21D;54051;53.464;49.532;2022-08-05T06:13:26;41.09;21.88
67131;HTU21D;54051;53.464;49.532;2022-08-05T06:15:53;41.41;21.18
67131;HTU21D;54051;53.464;49.532;2022-08-05T06:18:19;41.06;21.69
67131;HTU21D;54051;53.464;49.532;2022-08-05T06:20:45;40.35;22.87
67131;HTU21D;54051;53.464;49.532;2022-08-05T06:23:12;39.47;24.98
67131;HTU21D;54051;53.464;49.532;2022-08-05T06:25:38;37.70;27.28
67131;HTU21D;54051;53.464;49.532;2022-08-05T06:28:04;36.30;29.36
67131;HTU21D;54051;53.464;49.532;2022-08-05T06:30:30;37.56;25.77
67131;HTU21D;54051;53.464;49.532;2022-08-05T06:32:57;38.68;23.97
67131;HTU21D;54051;53.464;49.532;2022-08-05T06:35:23;39.61;22.01
67131;HTU21D;54051;53.464;49.532;2022-08-05T06:37:49;40.33;21.85
67131;HTU21D;54051;53.464;49.532;2022-08-05T06:40:16;41.43;20.46
67131;HTU21D;54051;53.464;49.532;2022-08-05T06:42:42;42.23;19.79
67131;HTU21D;54051;53.464;49.532;2022-08-05T06:45:08;42.64;20.65
67131;HTU21D;54051;53.464;49.532;2022-08-05T06:47:35;43.46;18.54
67131;HTU21D;54051;53.464;49.532;2022-08-05T06:50:02;43.61;18.51
67131;HTU21D;54051;53.464;49.532;2022-08-05T06:52:28;43.52;18.19
67131;HTU21D;54051;53.464;49.532;2022-08-05T06:54:54;43.35;18.93
67131;HTU21D;54051;53.464;49.532;2022-08-05T06:57:21;43.20;18.21
67131;HTU21D;54051;53.464;49.532;2022-08-05T06:59:47;41.92;20.66
67131;HTU21D;54051;53.464;49.532;2022-08-05T07:02:13;42.45;20.02
67131;HTU21D;54051;53.464;49.532;2022-08-05T07:04:39;41.31;21.85
67131;HTU21D;54051;53.464;49.532;2022-08-05T07:07:06;43.65;18.73
67131;HTU21D;54051;53.464;49.532;2022-08-05T07:09:32;42.75;19.89
67131;HTU21D;54051;53.464;49.532;2022-08-05T07:11:58;42.73;19.34
67131;HTU21D;54051;53.464;49.532;2022-08-05T07:14:24;42.55;19.63
67131;HTU21D;54051;53.464;49.532;2022-08-05T07:17:26;39.61;24.33
67131;HTU21D;54051;53.464;49.532;2022-08-05T07:19:53;41.14;21.86
67131;HTU21D;54051;53.464;49.532;2022-08-05T07:22:21;41.65;20.63
67131;HTU21D;54051;53.464;49.532;2022-08-05T07:24:48;40.25;22.92
67131;HTU21D;54051;53.464;49.532;2022-08-05T07:27:14;41.32;21.22
67131;HTU21D;54051;53.464;49.532;2022-08-05T07:29:40;42.49;19.51
67131;HTU21D;54051;53.464;49.532;2022-08-05T07:32:06;42.89;18.66
67131;HTU21D;54051;53.464;49.532;2022-08-05T07:34:32;43.74;17.70
67131;HTU21D;54051;53.464;49.532;2022-08-05T07:36:59;44.25;16.88
67131;HTU21D;54051;53.464;49.532;2022-08-05T07:39:25;44.39;16.18
67131;HTU21D;54051;53.464;49.532;2022-08-05T07:41:51;44.45;16.13
67131;HTU21D;54051;53.464;49.532;2022-08-05T07:44:18;44.27;16.56
67131;HTU21D;54051;53.464;49.532;2022-08-05T07:46:44;44.72;15.83
67131;HTU21D;54051;53.464;49.532;2022-08-05T07:49:11;44.76;15.15
67131;HTU21D;54051;53.464;49.532;2022-08-05T07:51:38;46.23;14.32
67131;HTU21D;54051;53.464;49.532;2022-08-05T07:54:05;46.52;14.16
67131;HTU21D;54051;53.464;49.532;2022-08-05T07:56:31;46.23;14.14
67131;HTU21D;54051;53.464;49.532;2022-08-05T07:58:57;45.58;15.64
67131;HTU21D;54051;53.464;49.532;2022-08-05T08:01:24;44.73;15.88
67131;HTU21D;54051;53.464;49.532;2022-08-05T08:03:52;44.22;17.69
67131;HTU21D;54051;53.464;49.532;2022-08-05T08:06:18;44.36;16.96
67131;HTU21D;54051;53.464;49.532;2022-08-05T08:08:45;44.16;17.82
67131;HTU21D;54051;53.464;49.532;2022-08-05T08:11:11;44.11;18.28
67131;HTU21D;54051;53.464;49.532;2022-08-05T08:13:39;43.77;18.63
67131;HTU21D;54051;53.464;49.532;2022-08-05T08:16:06;43.53;18.67
67131;HTU21D;54051;53.464;49.532;2022-08-05T08:18:32;42.09;21.53
67131;HTU21D;54051;53.464;49.532;2022-08-05T08:20:58;39.43;25.20
67131;HTU21D;54051;53.464;49.532;2022-08-05T08:23:25;37.76;29.39
67131;HTU21D;54051;53.464;49.532;2022-08-05T08:25:51;36.70;30.71
67131;HTU21D;54051;53.464;49.532;2022-08-05T08:28:17;36.13;33.15
67131;HTU21D;54051;53.464;49.532;2022-08-05T08:30:43;35.63;34.15
67131;HTU21D;54051;53.464;49.532;2022-08-05T08:33:10;35.10;33.89
67131;HTU21D;54051;53.464;49.532;2022-08-05T08:35:37;34.67;35.02
67131;HTU21D;54051;53.464;49.532;2022-08-05T08:38:03;34.52;34.88
67131;HTU21D;54051;53.464;49.532;2022-08-05T08:40:34;34.44;34.12
67131;HTU21D;54051;53.464;49.532;2022-08-05T08:43:00;34.25;33.78
67131;HTU21D;54051;53.464;49.532;2022-08-05T08:45:29;34.00;34.74
67131;HTU21D;54051;53.464;49.532;2022-08-05T08:47:57;34.11;31.13
67131;HTU21D;54051;53.464;49.532;2022-08-05T08:50:24;33.97;35.80
67131;HTU21D;54051;53.464;49.532;2022-08-05T08:52:57;34.17;32.99
67131;HTU21D;54051;53.464;49.532;2022-08-05T08:55:25;33.99;33.26
67131;HTU21D;54051;53.464;49.532;2022-08-05T08:57:52;33.79;33.63
67131;HTU21D;54051;53.464;49.532;2022-08-05T09:00:18;33.77;34.00
67131;HTU21D;54051;53.464;49.532;2022-08-05T09:02:45;34.37;33.05
67131;HTU21D;54051;53.464;49.532;2022-08-05T09:05:16;34.25;35.05
67131;HTU21D;54051;53.464;49.532;2022-08-05T09:07:42;34.06;35.56
67131;HTU21D;54051;53.464;49.532;2022-08-05T09:10:09;33.66;35.64
67131;HTU21D;54051;53.464;49.532;2022-08-05T09:12:37;33.28;37.65
67131;HTU21D;54051;53.464;49.532;2022-08-05T09:15:04;32.94;36.85
67131;HTU21D;54051;53.464;49.532;2022-08-05T09:17:31;32.69;39.77
67131;HTU21D;54051;53.464;49.532;2022-08-05T09:19:58;32.61;39.80
67131;HTU21D;54051;53.464;49.532;2022-08-05T09:22:25;32.39;41.71
67131;HTU21D;54051;53.464;49.532;2022-08-05T09:25:02;32.48;40.43
67131;HTU21D;54051;53.464;49.532;2022-08-05T09:27:35;32.52;41.64
67131;HTU21D;54051;53.464;49.532;2022-08-05T09:30:05;32.42;41.78
67131;HTU21D;54051;53.464;49.532;2022-08-05T09:32:36;32.38;43.34
67131;HTU21D;54051;53.464;49.532;2022-08-05T09:35:13;32.32;43.51
67131;HTU21D;54051;53.464;49.532;2022-08-05T09:37:51;32.24;43.39
67131;HTU21D;54051;53.464;49.532;2022-08-05T09:42:56;31.81;42.71
67131;HTU21D;54051;53.464;49.532;2022-08-05T09:45:38;31.95;43.37
67131;HTU21D;54051;53.464;49.532;2022-08-05T09:48:21;32.07;44.31
67131;HTU21D;54051;53.464;49.532;2022-08-05T09:50:53;31.96;43.41
67131;HTU21D;54051;53.464;49.532;2022-08-05T09:53:20;32.01;44.38
67131;HTU21D;54051;53.464;49.532;2022-08-05T09:55:51;31.95;44.67
67131;HTU21D;54051;53.464;49.532;2022-08-05T09:58:17;32.08;44.00
67131;HTU21D;54051;53.464;49.532;2022-08-05T10:03:22;31.81;43.12
67131;HTU21D;54051;53.464;49.532;2022-08-05T10:06:07;31.80;45.22
67131;HTU21D;54051;53.464;49.532;2022-08-05T10:08:37;31.80;43.29
67131;HTU21D;54051;53.464;49.532;2022-08-05T10:11:13;31.82;39.33
67131;HTU21D;54051;53.464;49.532;2022-08-05T10:13:39;31.80;37.14
67131;HTU21D;54051;53.464;49.532;2022-08-05T10:16:06;31.76;40.38
67131;HTU21D;54051;53.464;49.532;2022-08-05T10:18:53;31.75;39.03
67131;HTU21D;54051;53.464;49.532;2022-08-05T10:21:19;31.79;38.76
67131;HTU21D;54051;53.464;49.532;2022-08-05T10:23:46;31.74;39.39
67131;HTU21D;54051;53.464;49.532;2022-08-05T10:26:12;31.73;37.26
67131;HTU21D;54051;53.464;49.532;2022-08-05T10:28:40;31.88;34.09
67131;HTU21D;54051;53.464;49.532;2022-08-05T10:31:06;32.00;36.53
67131;HTU21D;54051;53.464;49.532;2022-08-05T10:33:33;32.43;39.98
67131;HTU21D;54051;53.464;49.532;2022-08-05T10:36:01;32.79;38.67
67131;HTU21D;54051;53.464;49.532;2022-08-05T10:38:32;32.55;40.14
67131;HTU21D;54051;53.464;49.532;2022-08-05T10:46:22;32.56;42.88
67131;HTU21D;54051;53.464;49.532;2022-08-05T10:48:54;32.31;40.23
67131;HTU21D;54051;53.464;49.532;2022-08-05T10:51:21;32.17;41.19
67131;HTU21D;54051;53.464;49.532;2022-08-05T10:56:18;31.80;40.18
67131;HTU21D;54051;53.464;49.532;2022-08-05T11:01:35;31.90;39.43
67131;HTU21D;54051;53.464;49.532;2022-08-05T11:04:10;32.00;39.36
67131;HTU21D;54051;53.464;49.532;2022-08-05T11:09:27;32.44;40.88
67131;HTU21D;54051;53.464;49.532;2022-08-05T11:11:54;32.40;38.36
67131;HTU21D;54051;53.464;49.532;2022-08-05T11:14:33;32.14;41.21
67131;HTU21D;54051;53.464;49.532;2022-08-05T11:19:58;32.29;40.73
67131;HTU21D;54051;53.464;49.532;2022-08-05T11:22:47;32.34;41.32
67131;HTU21D;54051;53.464;49.532;2022-08-05T11:25:36;32.34;40.40
67131;HTU21D;54051;53.464;49.532;2022-08-05T11:33:36;31.68;45.03
67131;HTU21D;54051;53.464;49.532;2022-08-05T11:36:08;31.42;45.50
67131;HTU21D;54051;53.464;49.532;2022-08-05T11:41:21;31.35;45.51
67131;HTU21D;54051;53.464;49.532;2022-08-05T11:46:29;31.43;43.31
67131;HTU21D;54051;53.464;49.532;2022-08-05T11:48:56;31.63;43.86
67131;HTU21D;54051;53.464;49.532;2022-08-05T11:51:24;31.87;42.86
67131;HTU21D;54051;53.464;49.532;2022-08-05T11:53:52;31.80;42.52
67131;HTU21D;54051;53.464;49.532;2022-08-05T11:56:19;31.71;42.25
67131;HTU21D;54051;53.464;49.532;2022-08-05T11:58:46;31.79;42.74
67131;HTU21D;54051;53.464;49.532;2022-08-05T12:01:15;31.89;42.18
67131;HTU21D;54051;53.464;49.532;2022-08-05T12:03:45;31.82;42.22
67131;HTU21D;54051;53.464;49.532;2022-08-05T12:06:13;31.85;42.03
67131;HTU21D;54051;53.464;49.532;2022-08-05T12:08:41;31.84;42.63
67131;HTU21D;54051;53.464;49.532;2022-08-05T12:11:09;31.83;42.39
67131;HTU21D;54051;53.464;49.532;2022-08-05T12:13:36;31.78;41.67
67131;HTU21D;54051;53.464;49.532;2022-08-05T12:16:17;31.76;41.80
67131;HTU21D;54051;53.464;49.532;2022-08-05T12:18:44;31.72;42.16
67131;HTU21D;54051;53.464;49.532;2022-08-05T12:21:12;31.81;43.20
67131;HTU21D;54051;53.464;49.532;2022-08-05T12:23:38;31.80;44.45
67131;HTU21D;54051;53.464;49.532;2022-08-05T12:26:05;31.76;43.22
67131;HTU21D;54051;53.464;49.532;2022-08-05T12:28:34;31.59;43.03
67131;HTU21D;54051;53.464;49.532;2022-08-05T12:31:01;31.43;42.05
67131;HTU21D;54051;53.464;49.532;2022-08-05T12:33:27;31.31;39.13
67131;HTU21D;54051;53.464;49.532;2022-08-05T12:35:54;31.37;40.85
67131;HTU21D;54051;53.464;49.532;2022-08-05T12:38:21;31.30;41.57
67131;HTU21D;54051;53.464;49.532;2022-08-05T12:40:49;31.24;39.61
67131;HTU21D;54051;53.464;49.532;2022-08-05T12:43:15;31.25;41.36
67131;HTU21D;54051;53.464;49.532;2022-08-05T12:45:54;31.26;42.11
67131;HTU21D;54051;53.464;49.532;2022-08-05T12:48:21;31.25;39.84
67131;HTU21D;54051;53.464;49.532;2022-08-05T12:51:13;31.18;41.27
67131;HTU21D;54051;53.464;49.532;2022-08-05T12:53:43;31.13;41.37
67131;HTU21D;54051;53.464;49.532;2022-08-05T12:56:46;31.19;40.20
67131;HTU21D;54051;53.464;49.532;2022-08-05T12:59:18;31.29;40.56
67131;HTU21D;54051;53.464;49.532;2022-08-05T13:01:53;31.20;38.38
67131;HTU21D;54051;53.464;49.532;2022-08-05T13:04:20;31.15;41.06
67131;HTU21D;54051;53.464;49.532;2022-08-05T13:06:47;31.14;39.39
67131;HTU21D;54051;53.464;49.532;2022-08-05T13:09:13;31.15;41.13
67131;HTU21D;54051;53.464;49.532;2022-08-05T13:11:40;31.14;43.18
67131;HTU21D;54051;53.464;49.532;2022-08-05T13:14:18;31.14;43.15
67131;HTU21D;54051;53.464;49.532;2022-08-05T13:16:49;31.18;43.22
67131;HTU21D;54051;53.464;49.532;2022-08-05T13:19:16;31.34;40.13
67131;HTU21D;54051;53.464;49.532;2022-08-05T13:21:45;31.53;34.76
67131;HTU21D;54051;53.464;49.532;2022-08-05T13:24:11;31.64;34.98
67131;HTU21D;54051;53.464;49.532;2022-08-05T13:26:38;31.42;35.24
67131;HTU21D;54051;53.464;49.532;2022-08-05T13:29:04;31.38;35.19
67131;HTU21D;54051;53.464;49.532;2022-08-05T13:31:30;31.35;36.09
67131;HTU21D;54051;53.464;49.532;2022-08-05T13:33:56;31.44;34.86
67131;HTU21D;54051;53.464;49.532;2022-08-05T13:36:22;31.56;33.77
67131;HTU21D;54051;53.464;49.532;2022-08-05T13:38:48;31.57;32.17
67131;HTU21D;54051;53.464;49.532;2022-08-05T13:41:14;31.39;33.10
67131;HTU21D;54051;53.464;49.532;2022-08-05T13:43:41;31.23;32.90
67131;HTU21D;54051;53.464;49.532;2022-08-05T13:46:10;30.97;33.37
67131;HTU21D;54051;53.464;49.532;2022-08-05T13:48:37;30.79;34.10
67131;HTU21D;54051;53.464;49.532;2022-08-05T13:51:07;30.63;33.86
67131;HTU21D;54051;53.464;49.532;2022-08-05T13:53:34;30.61;33.84
67131;HTU21D;54051;53.464;49.532;2022-08-05T13:56:01;30.66;34.00
67131;HTU21D;54051;53.464;49.532;2022-08-05T13:58:28;30.64;34.32
67131;HTU21D;54051;53.464;49.532;2022-08-05T14:00:54;30.57;34.81
67131;HTU21D;54051;53.464;49.532;2022-08-05T14:03:20;30.70;34.31
67131;HTU21D;54051;53.464;49.532;2022-08-05T14:05:47;30.81;33.76
67131;HTU21D;54051;53.464;49.532;2022-08-05T14:08:13;30.77;33.81
67131;HTU21D;54051;53.464;49.532;2022-08-05T14:10:39;30.71;34.31
67131;HTU21D;54051;53.464;49.532;2022-08-05T14:13:05;30.81;34.16
67131;HTU21D;54051;53.464;49.532;2022-08-05T14:15:33;30.92;33.72
67131;HTU21D;54051;53.464;49.532;2022-08-05T14:18:00;30.98;34.08
67131;HTU21D;54051;53.464;49.532;2022-08-05T14:20:27;31.06;33.89
67131;HTU21D;54051;53.464;49.532;2022-08-05T14:22:54;30.99;35.10
67131;HTU21D;54051;53.464;49.532;2022-08-05T14:25:20;30.90;36.34
67131;HTU21D;54051;53.464;49.532;2022-08-05T14:27:47;30.90;36.42
67131;HTU21D;54051;53.464;49.532;2022-08-05T14:30:14;30.80;40.39
67131;HTU21D;54051;53.464;49.532;2022-08-05T14:32:40;30.65;42.78
67131;HTU21D;54051;53.464;49.532;2022-08-05T14:35:08;30.38;45.36
67131;HTU21D;54051;53.464;49.532;2022-08-05T14:37:34;30.11;46.57
67131;HTU21D;54051;53.464;49.532;2022-08-05T14:40:01;29.96;46.62
67131;HTU21D;54051;53.464;49.532;2022-08-05T14:42:27;29.86;46.65
67131;HTU21D;54051;53.464;49.532;2022-08-05T14:44:53;29.76;47.32
67131;HTU21D;54051;53.464;49.532;2022-08-05T14:47:19;29.88;46.60
67131;HTU21D;54051;53.464;49.532;2022-08-05T14:49:45;29.89;46.31
67131;HTU21D;54051;53.464;49.532;2022-08-05T14:52:11;29.95;46.55
67131;HTU21D;54051;53.464;49.532;2022-08-05T14:54:37;29.97;47.04
67131;HTU21D;54051;53.464;49.532;2022-08-05T14:57:03;29.91;46.89
67131;HTU21D;54051;53.464;49.532;2022-08-05T14:59:29;29.81;45.97
67131;HTU21D;54051;53.464;49.532;2022-08-05T15:01:55;29.73;47.51
67131;HTU21D;54051;53.464;49.532;2022-08-05T15:04:22;29.66;47.59
67131;HTU21D;54051;53.464;49.532;2022-08-05T15:06:49;29.57;47.51
67131;HTU21D;54051;53.464;49.532;2022-08-05T15:09:17;29.47;48.25
67131;HTU21D;54051;53.464;49.532;2022-08-05T15:11:43;29.31;48.10
67131;HTU21D;54051;53.464;49.532;2022-08-05T15:14:09;29.11;48.97
67131;HTU21D;54051;53.464;49.532;2022-08-05T15:16:35;29.09;48.56
67131;HTU21D;54051;53.464;49.532;2022-08-05T15:19:01;29.00;49.44
67131;HTU21D;54051;53.464;49.532;2022-08-05T15:21:27;28.89;49.12
67131;HTU21D;54051;53.464;49.532;2022-08-05T15:23:53;28.83;50.02
67131;HTU21D;54051;53.464;49.532;2022-08-05T15:26:19;28.75;49.50
67131;HTU21D;54051;53.464;49.532;2022-08-05T15:28:45;28.67;49.95
67131;HTU21D;54051;53.464;49.532;2022-08-05T15:31:11;28.59;50.43
67131;HTU21D;54051;53.464;49.532;2022-08-05T15:33:38;28.52;50.64
67131;HTU21D;54051;53.464;49.532;2022-08-05T15:36:04;28.42;50.92
67131;HTU21D;54051;53.464;49.532;2022-08-05T15:38:32;28.30;50.81
67131;HTU21D;54051;53.464;49.532;2022-08-05T15:40:58;28.25;51.02
67131;HTU21D;54051;53.464;49.532;2022-08-05T15:43:24;28.25;51.08
67131;HTU21D;54051;53.464;49.532;2022-08-05T15:45:50;28.20;50.92
67131;HTU21D;54051;53.464;49.532;2022-08-05T15:48:17;28.19;50.84
67131;HTU21D;54051;53.464;49.532;2022-08-05T15:50:46;28.19;50.25
67131;HTU21D;54051;53.464;49.532;2022-08-05T15:53:13;28.21;48.76